createdAt,value
2022-08-08T00:00:59.659Z,14.30
2022-08-08T00:06:07.223Z,14.10
2022-08-08T00:12:02.947Z,14.10
2022-08-08T00:17:22.457Z,14.20
2022-08-08T00:22:30.801Z,14.20
2022-08-08T00:27:37.778Z,14.90
2022-08-08T00:33:04.239Z,15.10
2022-08-08T00:38:31.382Z,15.20
2022-08-08T00:43:59.257Z,15.00
2022-08-08T00:49:35.660Z,14.70
2022-08-08T00:54:52.364Z,14.50
2022-08-08T01:00:17.785Z,14.60
2022-08-08T01:05:42.570Z,14.60
2022-08-08T01:11:51.883Z,14.60
2022-08-08T01:17:11.534Z,14.70
2022-08-08T01:22:51.043Z,15.00
2022-08-08T01:27:59.370Z,14.80
2022-08-08T01:33:24.275Z,14.60
2022-08-08T01:39:04.330Z,14.50
2022-08-08T01:44:26.497Z,14.50
2022-08-08T01:49:40.462Z,14.50
2022-08-08T01:55:25.864Z,14.70
2022-08-08T02:00:54.744Z,14.60
2022-08-08T02:06:07.910Z,14.60
2022-08-08T02:11:59.457Z,14.70
2022-08-08T02:17:10.749Z,14.70
2022-08-08T02:22:52.635Z,14.70
2022-08-08T02:28:02.062Z,14.60
2022-08-08T02:33:12.784Z,14.70
2022-08-08T02:38:52.350Z,14.80
2022-08-08T02:44:37.276Z,14.80
2022-08-08T02:49:48.053Z,14.80
2022-08-08T02:55:02.727Z,14.70
2022-08-08T03:00:32.197Z,14.80
2022-08-08T03:05:53.491Z,14.90
2022-08-08T03:11:47.988Z,14.90
2022-08-08T03:16:50.633Z,15.00
2022-08-08T03:21:58.486Z,15.00
2022-08-08T03:27:13.588Z,15.00
2022-08-08T03:32:34.215Z,15.00
2022-08-08T03:38:54.565Z,15.00
2022-08-08T03:43:16.444Z,15.00
2022-08-08T03:49:09.739Z,15.00
2022-08-08T03:53:47.762Z,15.00
2022-08-08T03:58:51.500Z,15.00
2022-08-08T04:03:58.676Z,15.10
2022-08-08T04:09:10.450Z,15.20
2022-08-08T04:14:33.239Z,15.40
2022-08-08T04:19:36.717Z,15.40
2022-08-08T04:24:40.216Z,15.40
2022-08-08T04:29:55.468Z,15.40
2022-08-08T04:35:04.956Z,15.40
2022-08-08T04:40:10.746Z,15.40
2022-08-08T04:45:15.502Z,15.60
2022-08-08T04:50:25.408Z,15.60
2022-08-08T04:55:37.936Z,15.80
2022-08-08T05:00:56.617Z,15.90
2022-08-08T05:05:58.404Z,15.90
2022-08-08T05:11:03.628Z,15.90
2022-08-08T05:16:55.154Z,16.20
2022-08-08T05:21:28.106Z,16.20
2022-08-08T05:26:48.691Z,16.30
2022-08-08T05:32:03.784Z,16.70
2022-08-08T05:37:18.925Z,17.00
2022-08-08T05:42:43.155Z,17.20
2022-08-08T05:48:00.529Z,17.30
2022-08-08T05:53:53.794Z,17.70
2022-08-08T05:58:32.622Z,18.00
2022-08-08T06:03:36.746Z,18.50
2022-08-08T06:08:53.212Z,18.80
2022-08-08T06:13:57.543Z,19.00
2022-08-08T06:19:01.918Z,19.20
2022-08-08T06:24:13.885Z,19.30
2022-08-08T06:30:07.390Z,18.90
2022-08-08T06:36:07.312Z,19.40
2022-08-08T06:40:53.808Z,19.80
2022-08-08T06:45:56.728Z,19.70
2022-08-08T06:50:59.178Z,21.00
2022-08-08T06:56:03.392Z,23.20
2022-08-08T07:01:52.165Z,24.40
2022-08-08T07:06:34.305Z,25.70
2022-08-08T07:11:51.310Z,24.90
2022-08-08T07:17:14.305Z,24.20
2022-08-08T07:22:27.962Z,24.00
2022-08-08T07:28:02.207Z,23.20
2022-08-08T07:33:03.544Z,21.80
2022-08-08T07:38:18.400Z,21.40
2022-08-08T07:43:35.151Z,21.60
2022-08-08T07:48:39.374Z,21.90
2022-08-08T07:54:27.109Z,22.30
2022-08-08T07:59:37.679Z,26.70
2022-08-08T08:04:46.725Z,25.60
2022-08-08T08:09:51.245Z,25.70
2022-08-08T08:15:05.372Z,24.50
2022-08-08T08:20:10.147Z,23.50
2022-08-08T08:25:12.112Z,23.90
2022-08-08T08:30:19.228Z,23.40
2022-08-08T08:35:29.998Z,23.60
2022-08-08T08:40:48.510Z,23.10
2022-08-08T08:45:57.343Z,23.10
2022-08-08T08:51:02.025Z,22.60
2022-08-08T08:56:06.960Z,22.70
2022-08-08T09:01:13.273Z,22.50
2022-08-08T09:06:33.775Z,22.70
2022-08-08T09:11:47.776Z,22.20
2022-08-08T09:16:59.982Z,21.00
2022-08-08T09:22:06.121Z,21.00
2022-08-08T09:27:14.813Z,21.40
2022-08-08T09:32:39.691Z,22.00
2022-08-08T09:38:04.182Z,22.00
2022-08-08T09:43:24.163Z,21.90
2022-08-08T09:48:46.609Z,22.70
2022-08-08T09:54:07.802Z,23.00
2022-08-08T10:00:01.638Z,22.20
2022-08-08T10:04:48.599Z,22.20
2022-08-08T10:09:59.817Z,22.70
2022-08-08T10:15:17.192Z,22.30
2022-08-08T10:20:40.149Z,22.00
2022-08-08T10:25:56.235Z,22.90
2022-08-08T10:31:21.519Z,24.50
2022-08-08T10:36:44.766Z,25.00
2022-08-08T10:42:15.316Z,25.70
2022-08-08T10:47:21.584Z,24.90
2022-08-08T10:52:42.324Z,24.30
2022-08-08T10:57:53.063Z,23.10
2022-08-08T11:02:55.976Z,23.30
2022-08-08T11:08:38.932Z,24.10
2022-08-08T11:13:31.706Z,23.90
2022-08-08T11:18:36.302Z,23.30
2022-08-08T11:23:41.774Z,22.50
2022-08-08T11:28:45.236Z,23.00
2022-08-08T11:34:03.198Z,23.10
2022-08-08T11:39:12.719Z,23.10
2022-08-08T11:44:15.830Z,23.40
2022-08-08T11:49:18.639Z,23.90
2022-08-08T11:54:34.484Z,24.10
2022-08-08T12:00:02.727Z,24.50
2022-08-08T12:05:13.610Z,24.70
2022-08-08T12:10:17.891Z,23.80
2022-08-08T12:15:42.571Z,23.20
2022-08-08T12:20:50.687Z,23.50
2022-08-08T12:25:56.902Z,22.80
2022-08-08T12:31:06.435Z,22.70
2022-08-08T12:36:13.224Z,23.20
2022-08-08T12:41:33.989Z,23.10
2022-08-08T12:46:37.416Z,23.50
2022-08-08T12:51:50.175Z,23.50
2022-08-08T12:56:56.095Z,23.00
2022-08-08T13:02:01.665Z,22.50
2022-08-08T13:07:16.696Z,22.20
2022-08-08T13:12:32.966Z,22.50
2022-08-08T13:17:54.122Z,23.00
2022-08-08T13:28:28.869Z,23.20
2022-08-08T13:33:42.077Z,22.70
2022-08-08T13:38:45.379Z,22.70
2022-08-08T13:43:50.874Z,23.30
2022-08-08T13:49:11.164Z,22.40
2022-08-08T13:54:22.392Z,22.30
2022-08-08T13:59:35.412Z,22.40
2022-08-08T14:05:09.015Z,22.40
2022-08-08T14:10:32.695Z,22.40
2022-08-08T14:15:50.212Z,22.40
2022-08-08T14:21:02.708Z,22.50
2022-08-08T14:26:10.788Z,22.70
2022-08-08T14:31:23.239Z,22.50
2022-08-08T14:36:37.127Z,22.90
2022-08-08T14:41:53.312Z,22.80
2022-08-08T14:47:00.146Z,22.80
2022-08-08T14:52:09.853Z,22.40
2022-08-08T14:57:13.321Z,21.80
2022-08-08T15:02:31.031Z,21.30
2022-08-08T15:07:39.768Z,21.20
2022-08-08T15:12:44.722Z,21.00
2022-08-08T15:17:48.482Z,20.80
2022-08-08T15:22:50.314Z,20.80
2022-08-08T15:28:04.914Z,21.00
2022-08-08T15:33:35.214Z,21.20
2022-08-08T15:38:40.437Z,21.50
2022-08-08T15:43:42.569Z,21.70
2022-08-08T15:49:04.505Z,21.70
2022-08-08T15:54:06.616Z,21.50
2022-08-08T15:59:20.484Z,21.40
2022-08-08T16:04:42.527Z,21.20
2022-08-08T16:13:14.323Z,21.00
2022-08-08T16:15:07.412Z,20.90
2022-08-08T16:20:13.383Z,20.70
2022-08-08T16:25:15.950Z,20.60
2022-08-08T16:30:32.576Z,20.70
2022-08-08T16:35:38.616Z,20.60
2022-08-08T16:40:40.797Z,20.60
2022-08-08T16:46:43.546Z,20.50
2022-08-08T16:51:04.856Z,20.50
2022-08-08T16:56:14.272Z,20.30
2022-08-08T17:01:17.340Z,20.20
2022-08-08T17:06:36.737Z,20.10
2022-08-08T17:11:49.072Z,20.00
2022-08-08T17:16:58.569Z,19.80
2022-08-08T17:22:05.302Z,19.70
2022-08-08T17:27:08.108Z,19.70
2022-08-08T17:32:12.401Z,19.60
2022-08-08T17:37:14.272Z,19.50
2022-08-08T17:42:17.936Z,19.50
2022-08-08T17:47:24.039Z,19.40
2022-08-08T17:52:29.987Z,19.30
2022-08-08T17:57:35.397Z,19.30
2022-08-08T18:02:37.997Z,19.30
2022-08-08T18:08:02.288Z,19.20
2022-08-08T18:13:04.139Z,19.20
2022-08-08T18:18:28.696Z,19.10
2022-08-08T18:23:31.269Z,19.00
2022-08-08T18:28:34.856Z,18.90
2022-08-08T18:34:11.762Z,18.90
2022-08-08T18:39:27.457Z,18.70
2022-08-08T18:44:29.973Z,18.60
2022-08-08T18:49:49.126Z,18.40
2022-08-08T18:54:59.717Z,18.20
2022-08-08T19:00:16.909Z,18.10
2022-08-08T19:05:22.147Z,18.00
2022-08-08T19:10:24.127Z,18.00
2022-08-08T19:15:34.144Z,18.00
2022-08-08T19:20:37.958Z,17.90
2022-08-08T19:26:19.875Z,17.90
2022-08-08T19:31:07.457Z,17.90
2022-08-08T19:36:14.445Z,17.90
2022-08-08T19:41:20.939Z,17.90
2022-08-08T19:46:23.563Z,17.90
2022-08-08T19:51:34.548Z,17.90
2022-08-08T19:56:48.587Z,18.00
2022-08-08T20:02:03.227Z,18.00
2022-08-08T20:08:28.023Z,18.10
2022-08-08T20:12:35.131Z,18.10
2022-08-08T20:17:39.065Z,18.00
2022-08-08T20:22:41.377Z,18.00
2022-08-08T20:27:50.303Z,18.00
2022-08-08T20:32:55.920Z,18.10
2022-08-08T20:37:59.454Z,18.00
2022-08-08T20:43:02.087Z,18.10
2022-08-08T20:48:26.036Z,18.00
2022-08-08T20:53:59.785Z,18.00
2022-08-08T20:58:52.322Z,17.90
2022-08-08T21:04:00.217Z,17.90
2022-08-08T21:09:03.884Z,17.80
2022-08-08T21:14:07.538Z,17.70
2022-08-08T21:19:10.899Z,17.70
2022-08-08T21:24:24.111Z,17.60
2022-08-08T21:30:04.423Z,17.50
2022-08-08T21:34:56.809Z,17.40
2022-08-08T21:40:16.522Z,17.30
2022-08-08T21:45:44.186Z,17.40
2022-08-08T21:50:44.849Z,17.40
2022-08-08T21:56:19.480Z,17.40
2022-08-08T22:01:27.915Z,17.40
2022-08-08T22:06:34.191Z,17.40
2022-08-08T22:11:59.420Z,17.40
2022-08-08T22:17:01.782Z,17.40
2022-08-08T22:22:03.950Z,17.40
2022-08-08T22:27:06.376Z,17.30
2022-08-08T22:32:09.016Z,17.20
2022-08-08T22:37:14.921Z,17.20
2022-08-08T22:42:34.347Z,17.20
2022-08-08T22:47:38.195Z,17.10
2022-08-08T22:52:58.773Z,17.10
2022-08-08T22:58:05.216Z,17.10
2022-08-08T23:03:08.635Z,17.10
2022-08-08T23:08:11.639Z,17.00
2022-08-08T23:13:21.955Z,17.10
2022-08-08T23:18:23.845Z,17.00
2022-08-08T23:23:28.698Z,16.90
2022-08-08T23:28:33.361Z,16.70
2022-08-08T23:34:15.901Z,16.60
2022-08-08T23:38:57.926Z,16.50
2022-08-08T23:44:02.909Z,16.60
2022-08-08T23:49:18.134Z,16.60
2022-08-08T23:54:43.639Z,16.60
2022-08-08T23:59:43.233Z,16.70
